Country
Station

 

Weather  for  Halmstad Swedish Air Force Base  -  Sweden    Sweden

  
17 °C (63 °F)
    
 
 

Current METAR for Halmstad Swedish Air Force Base is :

ESMT 201950Z 30009KT 9999 FEW023 BKN049 17/14 Q1010

 

This is a report for Halmstad Swedish Air Force Base - Sweden.
 
The report was made 34 minutes ago, at 19:50 UTC .
The wind was blowing at a speed of 4.6 meters per second (10.4 miles per hour) from west/northwest (300°).
 
The temperature was 17 °C (63 °F), with a dew-point at 14 °C (57 °F).
The atmospheric pressure was 1010 hPa (29.83 inHg).
The relative humidity was 82.5%.
 
There were a few clouds at a height of 701 meters (2300 feet) and broken clouds at a height of 1494 meters (4900 feet).
 
The overall visibility was greater than 10 kilometers (6.2 miles).
 

 
 
 
 

Country :   A   B   C   D   E   F   G   H   I   J   K   L   M   N   O   P   Q   R   S   T   U   V   W   Y   Z

 

Site Info  |  Disclaimer  |  Credits  |  Privacy
Contact us  |  Add to favorites
© 2013-2019 METARs - All rights reserved